Time;durP1;ratioP1;P1;durP2;ratioP2;P2;SDS_P1;SDS_P2;PMS_P1;PMS_P2;Temp;Humidity;BMP_temperature;BMP_pressure;BME280_temperature;BME280_humidity;BME280_pressure;Samples;Min_cycle;Max_cycle;Signal;HPM_P1;HPM_P2
2022/08/06 00:03:49;;;;;;;;;;;;;;;;;;10629598;27;19923;-61
2022/08/06 00:08:52;;;;;;;;;;;;;;;;;;10629005;27;19923;-61
2022/08/06 00:13:54;;;;;;;;;;;;;;;;;;10628742;27;20290;-61
2022/08/06 00:18:56;;;;;;;;;;;;;;;;;;10595403;27;20033;-61
2022/08/06 00:23:58;;;;;;;;;;;;;;;;;;10587050;27;19924;-61
2022/08/06 00:29:00;;;;;;;;;;;;;;;;;;10589985;27;20175;-61
2022/08/06 00:34:03;;;;;;;;;;;;;;;;;;10628586;27;19930;-61
2022/08/06 00:39:05;;;;;;;;;;;;;;;;;;10592051;27;19938;-61
2022/08/06 00:44:10;;;;;;;;;;;;;;;;;;10586787;27;19924;-61
2022/08/06 00:49:13;;;;;;;;;;;;;;;;;;10585408;28;19930;-61
2022/08/06 00:54:35;;;;;;;;;;;;;;;;;;10584802;28;19923;-61
2022/08/06 00:59:37;;;;;;;;;;;;;;;;;;10542098;28;20282;-61
2022/08/06 01:04:39;;;;;;;;;;;;;;;;;;10611788;27;19923;-61
2022/08/06 01:09:41;;;;;;;;;;;;;;;;;;10625598;27;19927;-61
2022/08/06 01:14:47;;;;;;;;;;;;;;;;;;10626698;27;20014;-61
2022/08/06 01:20:03;;;;;;;;;;;;;;;;;;10626781;27;19924;-61
2022/08/06 01:25:25;;;;;;;;;;;;;;;;;;10584597;28;19930;-61
2022/08/06 01:30:28;;;;;;;;;;;;;;;;;;10584382;28;20015;-61
2022/08/06 01:35:30;;;;;;;;;;;;;;;;;;10595523;27;19923;-61
2022/08/06 01:40:48;;;;;;;;;;;;;;;;;;10623746;27;20022;-61
2022/08/06 01:45:52;;;;;;;;;;;;;;;;;;10625590;27;19923;-61
2022/08/06 01:50:56;;;;;;;;;;;;;;;;;;10592009;27;19965;-61
2022/08/06 01:55:58;;;;;;;;;;;;;;;;;;10583085;27;19930;-61
2022/08/06 02:01:00;;;;;;;;;;;;;;;;;;10585826;27;20304;-61
2022/08/06 02:06:02;;;;;;;;;;;;;;;;;;10624262;27;20423;-61
2022/08/06 02:11:05;;;;;;;;;;;;;;;;;;10624164;27;19924;-61
2022/08/06 02:16:27;;;;;;;;;;;;;;;;;;10612225;28;20374;-61
2022/08/06 02:21:29;;;;;;;;;;;;;;;;;;10583256;28;20373;-61
2022/08/06 02:26:34;;;;;;;;;;;;;;;;;;10581727;28;20286;-61
2022/08/06 02:31:36;;;;;;;;;;;;;;;;;;10581587;28;20396;-61
2022/08/06 02:36:39;;;;;;;;;;;;;;;;;;10604000;28;20374;-61
2022/08/06 02:41:51;;;;;;;;;;;;;;;;;;10611907;28;19954;-61
2022/08/06 02:46:56;;;;;;;;;;;;;;;;;;10581904;28;19967;-61
2022/08/06 02:51:58;;;;;;;;;;;;;;;;;;10581815;28;19938;-61
2022/08/06 02:57:13;;;;;;;;;;;;;;;;;;10600350;28;19923;-61
2022/08/06 03:02:15;;;;;;;;;;;;;;;;;;10605431;28;20025;-61
2022/08/06 03:07:17;;;;;;;;;;;;;;;;;;10581597;28;19924;-61
2022/08/06 03:12:27;;;;;;;;;;;;;;;;;;10611718;28;20320;-61
2022/08/06 03:17:31;;;;;;;;;;;;;;;;;;10623872;27;19969;-61
2022/08/06 03:22:33;;;;;;;;;;;;;;;;;;10629570;27;19931;-61
2022/08/06 03:27:45;;;;;;;;;;;;;;;;;;10630822;27;19924;-61
2022/08/06 03:32:47;;;;;;;;;;;;;;;;;;10630449;27;20388;-61
2022/08/06 03:37:53;;;;;;;;;;;;;;;;;;10603937;27;19930;-61
2022/08/06 03:43:01;;;;;;;;;;;;;;;;;;10628450;27;19935;-62
2022/08/06 03:48:03;;;;;;;;;;;;;;;;;;10611705;27;19929;-61
2022/08/06 03:53:09;;;;;;;;;;;;;;;;;;10629634;27;20392;-61
2022/08/06 03:58:11;;;;;;;;;;;;;;;;;;10628435;27;19937;-61
2022/08/06 04:03:13;;;;;;;;;;;;;;;;;;10627472;27;19930;-61
2022/08/06 04:08:15;;;;;;;;;;;;;;;;;;10600758;27;19930;-61
2022/08/06 04:13:17;;;;;;;;;;;;;;;;;;10586249;28;20394;-61
2022/08/06 04:18:39;;;;;;;;;;;;;;;;;;10587047;28;19927;-61
2022/08/06 04:23:43;;;;;;;;;;;;;;;;;;10587649;27;19931;-61
2022/08/06 04:28:46;;;;;;;;;;;;;;;;;;10567868;28;19924;-61
2022/08/06 04:33:58;;;;;;;;;;;;;;;;;;10589929;27;19976;-61
2022/08/06 04:39:00;;;;;;;;;;;;;;;;;;10592552;27;19946;-61
2022/08/06 04:44:02;;;;;;;;;;;;;;;;;;10586259;27;20038;-61
2022/08/06 04:49:04;;;;;;;;;;;;;;;;;;10620723;27;19923;-61
2022/08/06 04:54:07;;;;;;;;;;;;;;;;;;10627459;27;19923;-61
2022/08/06 04:59:13;;;;;;;;;;;;;;;;;;10625702;27;19927;-61
2022/08/06 05:04:15;;;;;;;;;;;;;;;;;;10625367;27;19923;-61
2022/08/06 05:09:17;;;;;;;;;;;;;;;;;;10601311;27;19930;-61
2022/08/06 05:14:24;;;;;;;;;;;;;;;;;;10584525;28;19977;-61
2022/08/06 05:19:26;;;;;;;;;;;;;;;;;;10593435;27;20296;-61
2022/08/06 05:24:28;;;;;;;;;;;;;;;;;;10624955;27;19973;-61
2022/08/06 05:29:40;;;;;;;;;;;;;;;;;;10626508;27;19976;-61
2022/08/06 05:34:50;;;;;;;;;;;;;;;;;;10603573;27;19945;-61
2022/08/06 05:39:54;;;;;;;;;;;;;;;;;;10565824;28;19962;-61
2022/08/06 05:44:58;;;;;;;;;;;;;;;;;;10585191;27;20285;-61
2022/08/06 05:50:02;;;;;;;;;;;;;;;;;;10583657;28;19928;-61
2022/08/06 05:55:04;;;;;;;;;;;;;;;;;;10583018;28;19931;-61
2022/08/06 06:00:10;;;;;;;;;;;;;;;;;;10583385;27;20290;-61
2022/08/06 06:05:33;;;;;;;;;;;;;;;;;;10623584;27;19931;-61
2022/08/06 06:10:55;;;;;;;;;;;;;;;;;;10624755;27;19927;-61
2022/08/06 06:15:57;;;;;;;;;;;;;;;;;;10588204;22;19924;-66
2022/08/06 06:21:03;;;;;;;;;;;;;;;;;;10580007;28;20150;-66
2022/08/06 06:26:19;;;;;;;;;;;;;;;;;;10581891;28;20027;-66
2022/08/06 06:31:34;;;;;;;;;;;;;;;;;;10580325;28;19924;-66
2022/08/06 06:36:56;;;;;;;;;;;;;;;;;;10543786;28;19924;-66
2022/08/06 06:41:59;;;;;;;;;;;;;;;;;;10542293;28;20019;-66
2022/08/06 06:47:01;;;;;;;;;;;;;;;;;;10542879;28;19931;-66
2022/08/06 06:52:05;;;;;;;;;;;;;;;;;;10539670;28;19930;-66
2022/08/06 06:57:09;;;;;;;;;;;;;;;;;;10566572;28;19932;-66
2022/08/06 07:02:11;;;;;;;;;;;;;;;;;;10548784;28;19931;-66
2022/08/06 07:07:14;;;;;;;;;;;;;;;;;;10546921;28;20397;-65
2022/08/06 07:12:24;;;;;;;;;;;;;;;;;;10547221;28;19924;-66
2022/08/06 07:17:26;;;;;;;;;;;;;;;;;;10546665;28;19950;-66
2022/08/06 07:22:47;;;;;;;;;;;;;;;;;;10564311;28;19924;-66
2022/08/06 07:28:09;;;;;;;;;;;;;;;;;;10588957;28;19981;-66
2022/08/06 07:33:13;;;;;;;;;;;;;;;;;;10588515;28;19924;-66
2022/08/06 07:38:15;;;;;;;;;;;;;;;;;;10586753;28;19924;-66
2022/08/06 07:43:17;;;;;;;;;;;;;;;;;;10565473;28;19925;-66
2022/08/06 07:48:25;;;;;;;;;;;;;;;;;;10545214;28;19924;-66
2022/08/06 07:53:28;;;;;;;;;;;;;;;;;;10546082;28;19947;-66
2022/08/06 07:58:41;;;;;;;;;;;;;;;;;;10567110;28;19924;-66
2022/08/06 08:09:27;;;;;;;;;;;;;;;;;;10585023;28;19924;-66
2022/08/06 08:14:50;;;;;;;;;;;;;;;;;;10572044;28;19928;-66
2022/08/06 08:19:52;;;;;;;;;;;;;;;;;;10544087;28;19924;-66
2022/08/06 08:24:54;;;;;;;;;;;;;;;;;;10543825;28;19931;-66
2022/08/06 08:29:56;;;;;;;;;;;;;;;;;;10545332;28;19924;-66
2022/08/06 08:35:00;;;;;;;;;;;;;;;;;;10543352;28;19924;-66
2022/08/06 08:40:03;;;;;;;;;;;;;;;;;;10541976;28;20267;-66
2022/08/06 08:45:05;;;;;;;;;;;;;;;;;;10543033;28;19924;-67
2022/08/06 08:50:13;;;;;;;;;;;;;;;;;;10542717;28;20275;-67
2022/08/06 08:55:16;;;;;;;;;;;;;;;;;;10542471;28;19924;-66
2022/08/06 09:00:38;;;;;;;;;;;;;;;;;;10548469;28;19923;-66
2022/08/06 09:05:41;;;;;;;;;;;;;;;;;;10580695;28;20011;-66
2022/08/06 09:10:48;;;;;;;;;;;;;;;;;;10577413;28;19963;-66
2022/08/06 09:15:53;;;;;;;;;;;;;;;;;;10541240;28;20332;-67
2022/08/06 09:20:56;;;;;;;;;;;;;;;;;;10542179;28;19931;-66
2022/08/06 09:25:58;;;;;;;;;;;;;;;;;;10541993;28;20001;-67
2022/08/06 09:31:00;;;;;;;;;;;;;;;;;;10541720;28;19928;-67
2022/08/06 09:36:03;;;;;;;;;;;;;;;;;;10541534;28;19946;-66
2022/08/06 09:41:05;;;;;;;;;;;;;;;;;;10541481;28;19924;-67
2022/08/06 09:46:08;;;;;;;;;;;;;;;;;;10541469;28;19924;-66
2022/08/06 09:51:10;;;;;;;;;;;;;;;;;;10541091;28;20094;-67
2022/08/06 09:56:15;;;;;;;;;;;;;;;;;;10541051;28;19924;-67
2022/08/06 10:01:17;;;;;;;;;;;;;;;;;;10540952;28;19928;-67
2022/08/06 10:06:23;;;;;;;;;;;;;;;;;;10540786;28;19985;-67
2022/08/06 10:11:27;;;;;;;;;;;;;;;;;;10539916;28;20401;-67
2022/08/06 10:16:30;;;;;;;;;;;;;;;;;;10539953;28;19924;-67
2022/08/06 10:21:32;;;;;;;;;;;;;;;;;;10540409;28;19924;-67
2022/08/06 10:26:43;;;;;;;;;;;;;;;;;;10540468;28;19932;-67
2022/08/06 10:31:45;;;;;;;;;;;;;;;;;;10547137;28;20353;-67
2022/08/06 10:36:53;;;;;;;;;;;;;;;;;;10548022;28;19931;-66
2022/08/06 10:41:55;;;;;;;;;;;;;;;;;;10547941;28;19931;-67
2022/08/06 10:47:03;;;;;;;;;;;;;;;;;;10548439;28;19928;-67
2022/08/06 10:52:06;;;;;;;;;;;;;;;;;;10548030;28;19928;-67
2022/08/06 10:57:12;;;;;;;;;;;;;;;;;;10547309;28;19946;-67
2022/08/06 11:02:14;;;;;;;;;;;;;;;;;;10547139;28;19924;-67
2022/08/06 11:07:18;;;;;;;;;;;;;;;;;;10547539;28;19925;-67
2022/08/06 11:12:40;;;;;;;;;;;;;;;;;;10546116;28;19935;-67
2022/08/06 11:17:42;;;;;;;;;;;;;;;;;;10550952;28;19925;-67
2022/08/06 11:22:44;;;;;;;;;;;;;;;;;;10557405;28;19928;-67
2022/08/06 11:27:56;;;;;;;;;;;;;;;;;;10570726;28;19947;-67
2022/08/06 11:33:03;;;;;;;;;;;;;;;;;;10535822;28;19975;-67
2022/08/06 11:38:05;;;;;;;;;;;;;;;;;;10556325;28;19930;-67
2022/08/06 11:43:26;;;;;;;;;;;;;;;;;;10544814;28;19974;-68
2022/08/06 11:48:28;;;;;;;;;;;;;;;;;;10545309;28;19924;-67
2022/08/06 11:53:33;;;;;;;;;;;;;;;;;;10545259;28;19979;-67
2022/08/06 11:58:53;;;;;;;;;;;;;;;;;;10544929;28;19924;-68
2022/08/06 12:03:55;;;;;;;;;;;;;;;;;;10545315;28;19924;-67
2022/08/06 12:08:57;;;;;;;;;;;;;;;;;;10546389;28;19924;-68
2022/08/06 12:13:59;;;;;;;;;;;;;;;;;;10545866;28;20371;-67
2022/08/06 12:19:21;;;;;;;;;;;;;;;;;;10544745;28;19978;-68
2022/08/06 12:24:26;;;;;;;;;;;;;;;;;;10565194;28;20379;-67
2022/08/06 12:29:48;;;;;;;;;;;;;;;;;;10582124;28;19985;-67
2022/08/06 12:34:51;;;;;;;;;;;;;;;;;;10583843;28;20367;-68
2022/08/06 12:45:20;;;;;;;;;;;;;;;;;;10551902;28;20349;-68
2022/08/06 12:50:42;;;;;;;;;;;;;;;;;;10567068;28;19924;-67
2022/08/06 12:55:47;;;;;;;;;;;;;;;;;;10584066;28;19924;-67
2022/08/06 13:00:49;;;;;;;;;;;;;;;;;;10545552;28;19924;-68
2022/08/06 13:05:51;;;;;;;;;;;;;;;;;;10577890;28;19949;-68
2022/08/06 13:10:53;;;;;;;;;;;;;;;;;;10543546;28;19924;-68
2022/08/06 13:15:55;;;;;;;;;;;;;;;;;;10542698;28;19932;-68
2022/08/06 13:20:57;;;;;;;;;;;;;;;;;;10567840;28;19931;-68
2022/08/06 13:26:00;;;;;;;;;;;;;;;;;;10582223;28;19924;-68
2022/08/06 13:31:10;;;;;;;;;;;;;;;;;;10581745;28;19924;-68
2022/08/06 13:36:12;;;;;;;;;;;;;;;;;;10552730;28;19924;-68
2022/08/06 13:41:14;;;;;;;;;;;;;;;;;;10542651;28;19924;-68
2022/08/06 13:46:16;;;;;;;;;;;;;;;;;;10539550;28;20371;-68
2022/08/06 13:51:21;;;;;;;;;;;;;;;;;;10541146;28;19924;-68
2022/08/06 13:56:29;;;;;;;;;;;;;;;;;;10541479;28;20291;-68
2022/08/06 14:01:32;;;;;;;;;;;;;;;;;;10574223;28;19923;-68
2022/08/06 14:06:46;;;;;;;;;;;;;;;;;;10555959;28;20331;-68
2022/08/06 14:11:50;;;;;;;;;;;;;;;;;;10545552;28;19931;-67
2022/08/06 14:16:52;;;;;;;;;;;;;;;;;;10539733;28;19932;-68
2022/08/06 14:21:54;;;;;;;;;;;;;;;;;;10540420;28;19924;-68
2022/08/06 14:26:56;;;;;;;;;;;;;;;;;;10539714;28;20382;-68
2022/08/06 14:31:58;;;;;;;;;;;;;;;;;;10540100;28;19924;-68
2022/08/06 14:37:00;;;;;;;;;;;;;;;;;;10540028;28;19928;-68
2022/08/06 14:47:24;;;;;;;;;;;;;;;;;;10539340;28;20363;-68
2022/08/06 14:52:46;;;;;;;;;;;;;;;;;;10539660;28;19977;-68
2022/08/06 14:57:48;;;;;;;;;;;;;;;;;;10539812;28;19928;-68
2022/08/06 15:03:06;;;;;;;;;;;;;;;;;;10539675;28;19924;-68
2022/08/06 15:08:14;;;;;;;;;;;;;;;;;;10539590;28;19925;-68
2022/08/06 15:13:16;;;;;;;;;;;;;;;;;;10539414;28;19930;-68
2022/08/06 15:18:20;;;;;;;;;;;;;;;;;;10557148;28;19954;-68
2022/08/06 15:23:44;;;;;;;;;;;;;;;;;;10547070;28;19924;-68
2022/08/06 15:28:55;;;;;;;;;;;;;;;;;;10545967;28;20409;-68
2022/08/06 15:33:58;;;;;;;;;;;;;;;;;;10546926;28;19928;-68
2022/08/06 15:39:00;;;;;;;;;;;;;;;;;;10559395;28;19924;-68
2022/08/06 15:44:02;;;;;;;;;;;;;;;;;;10579202;28;19931;-69
2022/08/06 15:49:05;;;;;;;;;;;;;;;;;;10545906;28;19924;-68
2022/08/06 15:54:07;;;;;;;;;;;;;;;;;;10545731;28;19924;-68
2022/08/06 15:59:10;;;;;;;;;;;;;;;;;;10561572;28;19924;-69
2022/08/06 16:04:13;;;;;;;;;;;;;;;;;;10583696;28;20027;-69
2022/08/06 16:09:15;;;;;;;;;;;;;;;;;;10587394;28;19924;-69
2022/08/06 16:14:28;;;;;;;;;;;;;;;;;;10586201;28;20354;-68
2022/08/06 16:19:34;;;;;;;;;;;;;;;;;;10585219;28;19928;-68
2022/08/06 16:24:50;;;;;;;;;;;;;;;;;;10584770;28;19928;-68
2022/08/06 16:29:53;;;;;;;;;;;;;;;;;;10585279;28;20417;-68
2022/08/06 16:34:58;;;;;;;;;;;;;;;;;;10544457;28;19931;-68
2022/08/06 16:40:01;;;;;;;;;;;;;;;;;;10544942;28;19928;-68
2022/08/06 16:45:06;;;;;;;;;;;;;;;;;;10543057;28;19924;-68
2022/08/06 16:50:12;;;;;;;;;;;;;;;;;;10542866;28;20383;-69
2022/08/06 16:55:26;;;;;;;;;;;;;;;;;;10543737;28;20005;-68
2022/08/06 17:00:28;;;;;;;;;;;;;;;;;;10578591;28;20393;-69
2022/08/06 17:05:50;;;;;;;;;;;;;;;;;;10584389;28;20426;-68
2022/08/06 17:10:53;;;;;;;;;;;;;;;;;;10584173;28;19946;-68
2022/08/06 17:15:59;;;;;;;;;;;;;;;;;;10580935;28;19924;-68
2022/08/06 17:21:01;;;;;;;;;;;;;;;;;;10543186;28;19928;-68
2022/08/06 17:26:03;;;;;;;;;;;;;;;;;;10542654;28;19927;-68
2022/08/06 17:31:05;;;;;;;;;;;;;;;;;;10541351;28;19947;-68
2022/08/06 17:36:07;;;;;;;;;;;;;;;;;;10541045;28;19932;-68
2022/08/06 17:41:29;;;;;;;;;;;;;;;;;;10499489;28;19928;-68
2022/08/06 17:46:47;;;;;;;;;;;;;;;;;;10498875;28;19931;-68
2022/08/06 17:51:50;;;;;;;;;;;;;;;;;;10508173;28;20378;-68
2022/08/06 17:56:55;;;;;;;;;;;;;;;;;;10545803;28;20286;-69
2022/08/06 18:01:57;;;;;;;;;;;;;;;;;;10540922;28;19924;-68
2022/08/06 18:06:59;;;;;;;;;;;;;;;;;;10574325;28;19924;-69
2022/08/06 18:12:11;;;;;;;;;;;;;;;;;;10551862;28;19932;-68
2022/08/06 18:17:14;;;;;;;;;;;;;;;;;;10542150;28;19924;-69
2022/08/06 18:22:19;;;;;;;;;;;;;;;;;;10566402;28;19924;-68
2022/08/06 18:27:24;;;;;;;;;;;;;;;;;;10580801;28;20003;-69
2022/08/06 18:32:46;;;;;;;;;;;;;;;;;;10563707;22;20343;-67
2022/08/06 18:37:52;;;;;;;;;;;;;;;;;;10579981;28;20263;-66
2022/08/06 18:43:03;;;;;;;;;;;;;;;;;;10582123;28;19924;-67
2022/08/06 18:48:06;;;;;;;;;;;;;;;;;;10567421;28;20277;-67
2022/08/06 18:53:09;;;;;;;;;;;;;;;;;;10559572;28;19931;-67
2022/08/06 18:58:11;;;;;;;;;;;;;;;;;;10585669;28;19928;-67
2022/08/06 19:03:14;;;;;;;;;;;;;;;;;;10557317;28;19923;-67
2022/08/06 19:08:16;;;;;;;;;;;;;;;;;;10547851;28;20010;-67
2022/08/06 19:13:30;;;;;;;;;;;;;;;;;;10546720;28;20026;-67
2022/08/06 19:18:52;;;;;;;;;;;;;;;;;;10547655;28;20336;-67
2022/08/06 19:23:58;;;;;;;;;;;;;;;;;;10548332;28;19966;-67
2022/08/06 19:29:04;;;;;;;;;;;;;;;;;;10538387;28;19924;-66
2022/08/06 19:34:07;;;;;;;;;;;;;;;;;;10512303;28;19924;-67
2022/08/06 19:39:10;;;;;;;;;;;;;;;;;;10546373;28;19924;-67
2022/08/06 19:44:33;;;;;;;;;;;;;;;;;;10546122;28;19924;-66
2022/08/06 19:49:41;;;;;;;;;;;;;;;;;;10534484;28;20303;-66
2022/08/06 19:54:43;;;;;;;;;;;;;;;;;;10507801;28;20286;-66
2022/08/06 19:59:45;;;;;;;;;;;;;;;;;;10520402;28;19924;-67
2022/08/06 20:05:07;;;;;;;;;;;;;;;;;;10502806;28;19924;-67
2022/08/06 20:10:13;;;;;;;;;;;;;;;;;;10505593;28;19974;-67
2022/08/06 20:15:36;;;;;;;;;;;;;;;;;;10499519;28;19924;-67
2022/08/06 20:20:41;;;;;;;;;;;;;;;;;;10516290;28;19931;-67
2022/08/06 20:25:43;;;;;;;;;;;;;;;;;;10502106;28;19928;-66
2022/08/06 20:31:05;;;;;;;;;;;;;;;;;;10527420;28;19932;-66
2022/08/06 20:36:07;;;;;;;;;;;;;;;;;;10564475;28;19931;-67
2022/08/06 20:41:10;;;;;;;;;;;;;;;;;;10578108;28;19931;-66
2022/08/06 20:46:32;;;;;;;;;;;;;;;;;;10585857;28;19924;-66
2022/08/06 20:51:54;;;;;;;;;;;;;;;;;;10553186;28;19970;-65
2022/08/06 20:56:56;;;;;;;;;;;;;;;;;;10544543;28;19924;-65
2022/08/06 21:01:59;;;;;;;;;;;;;;;;;;10542363;28;19924;-65
2022/08/06 21:07:01;;;;;;;;;;;;;;;;;;10543947;28;19935;-65
2022/08/06 21:12:03;;;;;;;;;;;;;;;;;;10542150;28;19932;-65
2022/08/06 21:17:05;;;;;;;;;;;;;;;;;;10547808;28;19947;-65
2022/08/06 21:22:09;;;;;;;;;;;;;;;;;;10584458;28;19924;-65
2022/08/06 21:27:11;;;;;;;;;;;;;;;;;;10541197;28;19928;-66
2022/08/06 21:32:14;;;;;;;;;;;;;;;;;;10541128;28;20282;-65
2022/08/06 21:37:16;;;;;;;;;;;;;;;;;;10563795;28;19931;-65
2022/08/06 21:42:22;;;;;;;;;;;;;;;;;;10583897;28;19923;-65
2022/08/06 21:47:24;;;;;;;;;;;;;;;;;;10583338;28;20014;-65
2022/08/06 21:52:27;;;;;;;;;;;;;;;;;;10562948;28;19924;-66
2022/08/06 21:57:32;;;;;;;;;;;;;;;;;;10583116;28;19930;-66
2022/08/06 22:02:48;;;;;;;;;;;;;;;;;;10579144;28;19924;-65
2022/08/06 22:07:52;;;;;;;;;;;;;;;;;;10540174;28;19928;-65
2022/08/06 22:13:06;;;;;;;;;;;;;;;;;;10580422;28;19928;-66
2022/08/06 22:18:14;;;;;;;;;;;;;;;;;;10582263;28;19975;-66
2022/08/06 22:23:18;;;;;;;;;;;;;;;;;;10572354;28;19924;-65
2022/08/06 22:28:20;;;;;;;;;;;;;;;;;;10541858;28;19998;-65
2022/08/06 22:33:25;;;;;;;;;;;;;;;;;;10582283;28;19923;-65
2022/08/06 22:38:27;;;;;;;;;;;;;;;;;;10563602;28;19924;-65
2022/08/06 22:43:33;;;;;;;;;;;;;;;;;;10569148;28;19924;-66
2022/08/06 22:48:55;;;;;;;;;;;;;;;;;;10541022;28;19938;-65
2022/08/06 22:53:57;;;;;;;;;;;;;;;;;;10539118;28;19924;-65
2022/08/06 22:59:20;;;;;;;;;;;;;;;;;;10540208;28;20378;-65
2022/08/06 23:04:42;;;;;;;;;;;;;;;;;;10564023;28;19924;-65
2022/08/06 23:09:47;;;;;;;;;;;;;;;;;;10580000;28;19928;-65
2022/08/06 23:14:52;;;;;;;;;;;;;;;;;;10580835;28;20360;-65
2022/08/06 23:19:56;;;;;;;;;;;;;;;;;;10581453;28;19978;-66
2022/08/06 23:24:59;;;;;;;;;;;;;;;;;;10579629;28;19928;-65
2022/08/06 23:30:21;;;;;;;;;;;;;;;;;;10561700;28;19957;-65
2022/08/06 23:35:23;;;;;;;;;;;;;;;;;;10540430;28;19931;-65
2022/08/06 23:40:36;;;;;;;;;;;;;;;;;;10546393;28;20003;-65
2022/08/06 23:45:38;;;;;;;;;;;;;;;;;;10546196;28;19924;-65
2022/08/06 23:50:40;;;;;;;;;;;;;;;;;;10549141;28;19946;-65
2022/08/06 23:55:51;;;;;;;;;;;;;;;;;;10545971;28;19973;-65
